createdAt,value
2018-08-23T00:00:05.323Z,23.92
2018-08-23T00:02:31.643Z,23.85
2018-08-23T00:04:58.000Z,23.80
2018-08-23T00:07:24.322Z,23.83
2018-08-23T00:09:50.697Z,23.85
2018-08-23T00:12:16.990Z,23.75
2018-08-23T00:14:43.309Z,23.57
2018-08-23T00:17:09.628Z,23.34
2018-08-23T00:19:35.937Z,23.19
2018-08-23T00:22:02.257Z,23.08
2018-08-23T00:24:28.568Z,23.06
2018-08-23T00:26:54.882Z,23.08
2018-08-23T00:29:21.192Z,23.11
2018-08-23T00:31:47.512Z,23.12
2018-08-23T00:34:13.825Z,23.13
2018-08-23T00:36:40.487Z,23.22
2018-08-23T00:39:06.796Z,23.37
2018-08-23T00:41:33.121Z,23.62
2018-08-23T00:44:04.748Z,23.83
2018-08-23T00:46:28.541Z,23.91
2018-08-23T00:48:55.091Z,23.94
2018-08-23T00:51:21.443Z,23.95
2018-08-23T00:53:47.751Z,23.96
2018-08-23T00:56:14.080Z,23.98
2018-08-23T00:58:40.404Z,23.99
2018-08-23T01:01:06.711Z,23.99
2018-08-23T01:03:33.020Z,23.99
2018-08-23T01:05:59.340Z,23.96
2018-08-23T01:08:25.652Z,23.96
2018-08-23T01:10:51.976Z,23.97
2018-08-23T01:13:18.298Z,23.98
2018-08-23T01:15:44.983Z,23.96
2018-08-23T01:18:11.298Z,23.96
2018-08-23T01:20:37.609Z,23.93
2018-08-23T01:23:03.929Z,23.92
2018-08-23T01:25:30.282Z,23.92
2018-08-23T01:27:56.549Z,23.92
2018-08-23T01:30:22.860Z,23.90
2018-08-23T01:32:49.176Z,23.90
2018-08-23T01:35:15.492Z,23.89
2018-08-23T01:37:41.801Z,23.87
2018-08-23T01:40:08.121Z,23.87
2018-08-23T01:42:34.450Z,23.86
2018-08-23T01:45:00.791Z,23.86
2018-08-23T01:47:27.131Z,23.85
2018-08-23T01:49:53.446Z,23.84
2018-08-23T01:52:19.763Z,23.83
2018-08-23T01:54:46.092Z,23.84
2018-08-23T01:57:12.449Z,23.83
2018-08-23T01:59:38.769Z,23.82
2018-08-23T02:02:05.125Z,23.82
2018-08-23T02:04:31.449Z,23.82
2018-08-23T02:06:57.803Z,23.80
2018-08-23T02:09:24.111Z,23.80
2018-08-23T02:11:50.468Z,23.81
2018-08-23T02:14:16.795Z,23.80
2018-08-23T02:16:43.157Z,23.79
2018-08-23T02:19:09.546Z,23.80
2018-08-23T02:21:35.899Z,23.80
2018-08-23T02:24:02.228Z,23.78
2018-08-23T02:26:28.535Z,23.78
2018-08-23T02:28:54.911Z,23.78
2018-08-23T02:31:21.223Z,23.77
2018-08-23T02:33:47.535Z,23.76
2018-08-23T02:36:13.850Z,23.77
2018-08-23T02:38:40.162Z,23.77
2018-08-23T02:41:06.529Z,23.76
2018-08-23T02:43:32.865Z,23.75
2018-08-23T02:45:59.179Z,23.75
2018-08-23T02:48:25.496Z,23.73
2018-08-23T02:50:51.810Z,23.73
2018-08-23T02:53:18.141Z,23.74
2018-08-23T02:55:44.475Z,23.72
2018-08-23T02:58:10.803Z,23.71
2018-08-23T03:00:37.230Z,23.71
2018-08-23T03:03:03.443Z,23.71
2018-08-23T03:05:29.788Z,23.70
2018-08-23T03:07:56.103Z,23.69
2018-08-23T03:10:22.426Z,23.70
2018-08-23T03:12:48.742Z,23.70
2018-08-23T03:15:15.064Z,23.68
2018-08-23T03:17:41.373Z,23.67
2018-08-23T03:20:07.732Z,23.68
2018-08-23T03:22:34.058Z,23.68
2018-08-23T03:25:00.385Z,23.68
2018-08-23T03:27:26.711Z,23.67
2018-08-23T03:29:53.018Z,23.64
2018-08-23T03:32:19.342Z,23.63
2018-08-23T03:34:45.711Z,23.62
2018-08-23T03:37:12.015Z,23.62
2018-08-23T03:39:38.371Z,23.62
2018-08-23T03:42:04.703Z,23.62
2018-08-23T03:44:31.038Z,23.62
2018-08-23T03:46:57.340Z,23.60
2018-08-23T03:49:23.661Z,23.58
2018-08-23T03:51:50.030Z,23.59
2018-08-23T03:54:16.361Z,23.59
2018-08-23T03:56:42.665Z,23.60
2018-08-23T03:59:08.988Z,23.59
2018-08-23T04:01:35.322Z,23.60
2018-08-23T04:04:01.661Z,23.61
2018-08-23T04:06:28.005Z,23.61
2018-08-23T04:08:54.328Z,23.62
2018-08-23T04:11:20.647Z,23.63
2018-08-23T04:13:47.003Z,23.62
2018-08-23T04:16:13.330Z,23.63
2018-08-23T04:18:39.682Z,23.64
2018-08-23T04:21:05.993Z,23.65
2018-08-23T04:23:32.325Z,23.65
2018-08-23T04:25:58.671Z,23.65
2018-08-23T04:28:25.001Z,23.66
2018-08-23T04:30:51.361Z,23.68
2018-08-23T04:33:17.682Z,23.70
2018-08-23T04:35:44.005Z,23.71
2018-08-23T04:38:10.326Z,23.72
2018-08-23T04:40:36.706Z,23.75
2018-08-23T04:43:03.052Z,23.80
2018-08-23T04:45:29.386Z,23.82
2018-08-23T04:47:55.726Z,23.86
2018-08-23T04:50:22.050Z,23.89
2018-08-23T04:52:48.360Z,23.94
2018-08-23T04:55:14.709Z,23.95
2018-08-23T04:57:41.036Z,23.99
2018-08-23T05:00:07.359Z,24.02
2018-08-23T05:02:33.682Z,24.06
2018-08-23T05:05:00.013Z,24.08
2018-08-23T05:07:26.340Z,24.13
2018-08-23T05:09:52.653Z,24.22
2018-08-23T05:12:18.992Z,24.31
2018-08-23T05:14:45.313Z,24.41
2018-08-23T05:17:11.645Z,24.51
2018-08-23T05:19:37.998Z,24.60
2018-08-23T05:22:04.329Z,24.69
2018-08-23T05:24:30.650Z,24.77
2018-08-23T05:26:56.988Z,24.85
2018-08-23T05:29:23.308Z,24.93
2018-08-23T05:31:49.627Z,25.00
2018-08-23T05:34:15.955Z,25.08
2018-08-23T05:36:42.331Z,25.18
2018-08-23T05:39:08.701Z,25.26
2018-08-23T05:41:35.070Z,25.34
2018-08-23T05:44:01.352Z,25.45
2018-08-23T05:46:27.686Z,25.53
2018-08-23T05:48:54.008Z,25.62
2018-08-23T05:51:20.347Z,25.70
2018-08-23T05:53:46.690Z,25.77
2018-08-23T05:56:13.052Z,25.87
2018-08-23T05:58:39.381Z,25.96
2018-08-23T06:01:05.715Z,26.04
2018-08-23T06:03:32.120Z,26.14
2018-08-23T06:05:58.443Z,26.25
2018-08-23T06:08:24.856Z,26.35
2018-08-23T06:10:51.105Z,26.45
2018-08-23T06:13:17.438Z,26.56
2018-08-23T06:15:43.761Z,26.66
2018-08-23T06:18:10.094Z,26.75
2018-08-23T06:20:36.407Z,26.87
2018-08-23T06:23:02.731Z,26.96
2018-08-23T06:25:29.087Z,27.08
2018-08-23T06:27:55.417Z,27.18
2018-08-23T06:30:21.791Z,27.30
2018-08-23T06:32:48.211Z,27.40
2018-08-23T06:35:14.498Z,27.51
2018-08-23T06:37:40.882Z,27.62
2018-08-23T06:40:07.209Z,27.73
2018-08-23T06:42:33.579Z,27.85
2018-08-23T06:44:59.928Z,27.95
2018-08-23T06:47:26.254Z,28.06
2018-08-23T06:49:52.577Z,28.18
2018-08-23T06:52:18.893Z,28.28
2018-08-23T06:54:45.220Z,28.39
2018-08-23T06:57:11.535Z,28.50
2018-08-23T06:59:37.855Z,28.60
2018-08-23T07:02:04.171Z,28.72
2018-08-23T07:04:30.490Z,28.84
2018-08-23T07:06:56.843Z,28.95
2018-08-23T07:09:23.156Z,29.08
2018-08-23T07:11:49.530Z,29.18
2018-08-23T07:14:15.812Z,29.29
2018-08-23T07:19:42.415Z,29.54
2018-08-23T07:22:08.625Z,29.65
2018-08-23T07:24:40.874Z,29.77
2018-08-23T07:27:03.613Z,29.90
2018-08-23T07:29:27.989Z,30.00
2018-08-23T07:31:54.334Z,30.12
2018-08-23T07:34:20.656Z,30.24
2018-08-23T07:36:46.979Z,30.35
2018-08-23T07:39:13.618Z,30.44
2018-08-23T07:41:39.860Z,30.55
2018-08-23T07:44:06.212Z,30.66
2018-08-23T07:46:32.512Z,30.78
2018-08-23T07:48:58.890Z,30.87
2018-08-23T07:51:25.222Z,30.98
2018-08-23T07:53:51.527Z,31.08
2018-08-23T07:56:17.884Z,31.18
2018-08-23T07:58:44.210Z,31.29
2018-08-23T08:01:10.548Z,31.39
2018-08-23T08:03:36.881Z,31.49
2018-08-23T08:06:03.218Z,31.58
2018-08-23T08:08:29.568Z,31.67
2018-08-23T08:10:55.890Z,31.75
2018-08-23T08:13:22.219Z,31.85
2018-08-23T08:15:48.545Z,31.94
2018-08-23T08:18:14.902Z,32.02
2018-08-23T08:20:41.243Z,32.13
2018-08-23T08:23:07.556Z,32.22
2018-08-23T08:25:33.926Z,32.28
2018-08-23T08:28:00.240Z,32.36
2018-08-23T08:30:26.549Z,32.44
2018-08-23T08:32:52.907Z,32.53
2018-08-23T08:35:19.236Z,32.64
2018-08-23T08:37:45.571Z,32.73
2018-08-23T08:40:11.894Z,32.82
2018-08-23T08:42:38.216Z,32.92
2018-08-23T08:45:04.532Z,33.01
2018-08-23T08:47:30.956Z,33.10
2018-08-23T08:49:57.292Z,33.17
2018-08-23T08:52:23.629Z,33.27
2018-08-23T08:54:49.957Z,33.34
2018-08-23T08:57:16.396Z,33.41
2018-08-23T08:59:42.671Z,33.43
2018-08-23T09:02:09.055Z,33.54
2018-08-23T09:04:35.392Z,33.61
2018-08-23T09:07:01.765Z,33.67
2018-08-23T09:09:28.127Z,33.75
2018-08-23T09:11:54.509Z,33.82
2018-08-23T09:14:31.876Z,33.91
2018-08-23T09:16:55.679Z,33.97
2018-08-23T09:19:22.032Z,34.05
2018-08-23T09:21:48.369Z,34.12
2018-08-23T09:24:14.709Z,34.16
2018-08-23T09:26:41.046Z,34.23
2018-08-23T09:29:07.363Z,34.28
2018-08-23T09:31:33.681Z,34.35
2018-08-23T09:34:00.022Z,34.43
2018-08-23T09:36:26.387Z,34.49
2018-08-23T09:38:52.722Z,34.56
2018-08-23T09:41:19.032Z,34.62
2018-08-23T09:43:45.346Z,34.67
2018-08-23T09:46:11.662Z,34.70
2018-08-23T09:48:38.021Z,34.73
2018-08-23T09:51:04.368Z,34.77
2018-08-23T09:53:30.664Z,34.78
2018-08-23T09:55:56.986Z,34.84
2018-08-23T09:58:23.327Z,34.85
2018-08-23T10:00:49.688Z,34.86
2018-08-23T10:03:16.042Z,34.88
2018-08-23T10:05:42.362Z,34.94
2018-08-23T10:08:08.687Z,34.96
2018-08-23T10:10:35.000Z,35.00
2018-08-23T10:13:01.318Z,35.03
2018-08-23T10:15:27.646Z,35.06
2018-08-23T10:17:54.001Z,35.10
2018-08-23T10:20:20.280Z,35.12
2018-08-23T10:22:46.600Z,35.15
2018-08-23T10:25:12.921Z,35.17
2018-08-23T10:27:39.237Z,35.21
2018-08-23T10:30:05.638Z,35.25
2018-08-23T10:32:31.956Z,35.28
2018-08-23T10:34:58.273Z,35.31
2018-08-23T10:37:24.613Z,35.33
2018-08-23T10:39:50.935Z,35.36
2018-08-23T10:42:17.353Z,35.38
2018-08-23T10:44:43.652Z,35.42
2018-08-23T10:47:10.032Z,35.45
2018-08-23T10:49:36.379Z,35.49
2018-08-23T10:52:02.699Z,35.51
2018-08-23T10:54:29.012Z,35.54
2018-08-23T10:56:55.324Z,35.55
2018-08-23T10:59:21.651Z,35.57
2018-08-23T11:01:47.973Z,35.57
2018-08-23T11:04:14.351Z,35.60
2018-08-23T11:06:40.702Z,35.62
2018-08-23T11:09:07.018Z,35.64
2018-08-23T11:11:33.334Z,35.63
2018-08-23T11:13:59.650Z,35.65
2018-08-23T11:16:25.981Z,35.66
2018-08-23T11:18:52.299Z,35.66
2018-08-23T11:21:18.701Z,35.59
2018-08-23T11:23:45.080Z,35.59
2018-08-23T11:26:11.393Z,35.60
2018-08-23T11:28:37.709Z,35.62
2018-08-23T11:31:04.065Z,35.63
2018-08-23T11:33:30.379Z,35.63
2018-08-23T11:35:56.738Z,35.63
2018-08-23T11:38:23.145Z,35.64
2018-08-23T11:40:49.460Z,35.64
2018-08-23T11:43:15.818Z,35.65
2018-08-23T11:45:42.140Z,35.64
2018-08-23T11:48:08.494Z,35.63
2018-08-23T11:50:34.866Z,35.65
2018-08-23T11:53:01.202Z,35.61
2018-08-23T11:55:27.533Z,35.57
2018-08-23T11:57:53.870Z,35.53
2018-08-23T12:00:20.253Z,35.45
2018-08-23T12:02:46.584Z,35.46
2018-08-23T12:05:12.957Z,35.43
2018-08-23T12:07:39.350Z,35.41
2018-08-23T12:10:05.676Z,35.33
2018-08-23T12:12:32.039Z,35.30
2018-08-23T12:14:58.360Z,35.28
2018-08-23T12:17:24.679Z,35.27
2018-08-23T12:19:51.017Z,35.25
2018-08-23T12:22:17.377Z,35.23
2018-08-23T12:24:43.697Z,35.20
2018-08-23T12:27:10.022Z,35.18
2018-08-23T12:29:36.382Z,35.14
2018-08-23T12:32:02.728Z,35.11
2018-08-23T12:34:29.084Z,35.07
2018-08-23T12:36:55.395Z,35.04
2018-08-23T12:39:21.764Z,35.02
2018-08-23T12:41:48.158Z,34.99
2018-08-23T12:44:14.508Z,34.95
2018-08-23T12:46:40.862Z,34.89
2018-08-23T12:49:07.169Z,34.88
2018-08-23T12:51:33.481Z,34.83
2018-08-23T12:53:59.836Z,34.80
2018-08-23T12:56:26.173Z,34.75
2018-08-23T12:58:52.456Z,34.73
2018-08-23T13:01:18.833Z,34.69
2018-08-23T13:03:45.209Z,34.65
2018-08-23T13:06:11.522Z,34.61
2018-08-23T13:08:37.872Z,34.57
2018-08-23T13:11:04.248Z,34.53
2018-08-23T13:13:30.501Z,34.51
2018-08-23T13:15:56.813Z,34.48
2018-08-23T13:18:23.162Z,34.43
2018-08-23T13:20:49.476Z,34.38
2018-08-23T13:23:15.810Z,34.35
2018-08-23T13:25:42.117Z,34.31
2018-08-23T13:28:08.433Z,34.25
2018-08-23T13:30:34.745Z,34.22
2018-08-23T13:33:01.063Z,34.19
2018-08-23T13:35:27.525Z,34.15
2018-08-23T13:37:53.816Z,34.12
2018-08-23T13:40:20.166Z,34.09
2018-08-23T13:42:46.518Z,34.06
2018-08-23T13:45:12.830Z,34.01
2018-08-23T13:47:39.142Z,33.97
2018-08-23T13:50:05.505Z,33.93
2018-08-23T13:52:31.857Z,33.88
2018-08-23T13:54:58.140Z,33.83
2018-08-23T13:57:24.455Z,33.77
2018-08-23T13:59:50.779Z,33.73
2018-08-23T14:02:17.197Z,33.70
2018-08-23T14:04:43.489Z,33.64
2018-08-23T14:07:09.835Z,33.62
2018-08-23T14:09:36.117Z,33.59
2018-08-23T14:12:02.475Z,33.55
2018-08-23T14:14:28.819Z,33.51
2018-08-23T14:16:55.141Z,33.46
2018-08-23T14:19:21.585Z,33.45
2018-08-23T14:21:47.807Z,33.42
2018-08-23T14:24:14.117Z,33.37
2018-08-23T14:26:40.433Z,33.35
2018-08-23T14:29:06.754Z,33.32
2018-08-23T14:31:33.101Z,33.29
2018-08-23T14:33:59.444Z,33.27
2018-08-23T14:36:25.762Z,33.25
2018-08-23T14:38:52.145Z,33.22
2018-08-23T14:41:18.416Z,33.20
2018-08-23T14:43:44.740Z,33.17
2018-08-23T14:46:11.058Z,33.15
2018-08-23T14:48:37.407Z,33.15
2018-08-23T14:51:03.762Z,33.11
2018-08-23T14:53:30.108Z,33.07
2018-08-23T14:55:56.452Z,33.05
2018-08-23T14:58:22.793Z,33.02
2018-08-23T15:00:49.113Z,33.00
2018-08-23T15:03:15.429Z,32.95
2018-08-23T15:05:41.782Z,32.95
2018-08-23T15:08:08.138Z,32.92
2018-08-23T15:10:34.438Z,32.90
2018-08-23T15:13:00.758Z,32.87
2018-08-23T15:15:27.146Z,32.82
2018-08-23T15:17:53.463Z,32.78
2018-08-23T15:20:19.787Z,32.71
2018-08-23T15:22:46.113Z,32.69
2018-08-23T15:25:12.412Z,32.66
2018-08-23T15:27:38.726Z,32.63
2018-08-23T15:30:05.042Z,32.59
2018-08-23T15:32:31.365Z,32.57
2018-08-23T15:34:57.679Z,32.55
2018-08-23T15:37:23.995Z,32.54
2018-08-23T15:39:50.344Z,32.52
2018-08-23T15:42:16.691Z,32.50
2018-08-23T15:44:43.050Z,32.46
2018-08-23T15:47:09.351Z,32.44
2018-08-23T15:49:35.665Z,32.40
2018-08-23T15:52:01.973Z,32.39
2018-08-23T15:54:28.295Z,32.38
2018-08-23T15:56:54.618Z,32.33
2018-08-23T15:59:20.975Z,32.30
2018-08-23T16:01:47.296Z,32.25
2018-08-23T16:04:13.614Z,32.22
2018-08-23T16:06:39.935Z,32.19
2018-08-23T16:09:06.249Z,32.17
2018-08-23T16:11:32.559Z,32.14
2018-08-23T16:13:58.871Z,32.12
2018-08-23T16:16:25.245Z,32.10
2018-08-23T16:18:51.564Z,32.07
2018-08-23T16:21:17.880Z,32.05
2018-08-23T16:23:44.228Z,32.01
2018-08-23T16:26:10.520Z,31.99
2018-08-23T16:28:36.836Z,31.97
2018-08-23T16:31:03.157Z,31.91
2018-08-23T16:33:29.478Z,31.91
2018-08-23T16:35:55.796Z,31.89
2018-08-23T16:38:22.113Z,31.88
2018-08-23T16:40:48.432Z,31.84
2018-08-23T16:43:14.753Z,31.80
2018-08-23T16:45:41.074Z,31.78
2018-08-23T16:48:07.428Z,31.77
2018-08-23T16:50:33.743Z,31.73
2018-08-23T16:53:00.111Z,31.71
2018-08-23T16:55:26.376Z,31.67
2018-08-23T16:57:52.698Z,31.64
2018-08-23T17:00:19.042Z,31.61
2018-08-23T17:02:45.392Z,31.58
2018-08-23T17:05:11.706Z,31.54
2018-08-23T17:07:38.023Z,31.49
2018-08-23T17:10:04.375Z,31.47
2018-08-23T17:12:30.648Z,31.44
2018-08-23T17:14:56.972Z,31.41
2018-08-23T17:17:23.289Z,31.36
2018-08-23T17:19:49.659Z,31.33
2018-08-23T17:22:16.020Z,31.29
2018-08-23T17:24:42.482Z,31.25
2018-08-23T17:27:08.659Z,31.23
2018-08-23T17:29:34.972Z,31.18
2018-08-23T17:32:01.291Z,31.14
2018-08-23T17:34:27.650Z,31.13
2018-08-23T17:36:53.941Z,31.11
2018-08-23T17:39:20.263Z,31.09
2018-08-23T17:41:46.588Z,31.05
2018-08-23T17:44:12.907Z,31.03
2018-08-23T17:46:39.225Z,31.02
2018-08-23T17:49:05.542Z,30.99
2018-08-23T17:51:31.877Z,30.96
2018-08-23T17:53:58.191Z,30.90
2018-08-23T17:56:24.525Z,30.86
2018-08-23T17:58:50.832Z,30.80
2018-08-23T18:01:17.165Z,30.74
2018-08-23T18:03:43.472Z,30.71
2018-08-23T18:06:09.788Z,30.67
2018-08-23T18:08:36.101Z,30.64
2018-08-23T18:11:02.470Z,30.59
2018-08-23T18:13:28.799Z,30.57
2018-08-23T18:15:55.129Z,30.54
2018-08-23T18:18:21.461Z,30.53
2018-08-23T18:20:47.792Z,30.52
2018-08-23T18:23:14.110Z,30.50
2018-08-23T18:25:40.444Z,30.48
2018-08-23T18:28:06.753Z,30.45
2018-08-23T18:30:33.062Z,30.41
2018-08-23T18:32:59.435Z,30.39
2018-08-23T18:35:25.750Z,30.36
2018-08-23T18:37:52.092Z,30.34
2018-08-23T18:40:18.410Z,30.31
2018-08-23T18:42:44.738Z,30.29
2018-08-23T18:45:11.049Z,30.25
2018-08-23T18:47:37.384Z,30.23
2018-08-23T18:50:03.702Z,30.21
2018-08-23T18:52:30.027Z,30.20
2018-08-23T18:54:56.355Z,30.18
2018-08-23T18:57:22.669Z,30.15
2018-08-23T18:59:48.998Z,30.11
2018-08-23T19:02:15.314Z,30.11
2018-08-23T19:04:41.624Z,30.07
2018-08-23T19:07:07.945Z,30.04
2018-08-23T19:09:34.286Z,30.00
2018-08-23T19:12:00.664Z,29.97
2018-08-23T19:14:26.958Z,29.94
2018-08-23T19:16:53.288Z,29.91
2018-08-23T19:19:19.619Z,29.90
2018-08-23T19:21:45.932Z,29.88
2018-08-23T19:24:12.241Z,29.83
2018-08-23T19:26:38.553Z,29.80
2018-08-23T19:29:04.864Z,29.75
2018-08-23T19:31:31.257Z,29.72
2018-08-23T19:33:57.520Z,29.69
2018-08-23T19:36:23.836Z,29.68
2018-08-23T19:38:50.188Z,29.65
2018-08-23T19:41:16.515Z,29.64
2018-08-23T19:43:42.830Z,29.62
2018-08-23T19:46:09.199Z,29.55
2018-08-23T19:48:35.523Z,29.51
2018-08-23T19:51:01.854Z,29.47
2018-08-23T19:53:28.178Z,29.46
2018-08-23T19:55:54.503Z,29.43
2018-08-23T19:58:20.854Z,29.41
2018-08-23T20:00:47.166Z,29.39
2018-08-23T20:03:13.481Z,29.39
2018-08-23T20:05:39.838Z,29.34
2018-08-23T20:08:06.150Z,29.29
2018-08-23T20:10:32.467Z,29.27
2018-08-23T20:12:58.781Z,29.24
2018-08-23T20:15:25.113Z,29.20
2018-08-23T20:17:51.483Z,29.20
2018-08-23T20:20:17.819Z,29.17
2018-08-23T20:22:44.147Z,29.13
2018-08-23T20:25:10.457Z,29.07
2018-08-23T20:27:36.788Z,29.03
2018-08-23T20:30:03.101Z,28.98
2018-08-23T20:32:29.417Z,28.98
2018-08-23T20:34:55.743Z,28.97
2018-08-23T20:37:22.076Z,28.93
2018-08-23T20:39:48.475Z,28.94
2018-08-23T20:42:14.711Z,28.91
2018-08-23T20:44:41.035Z,28.86
2018-08-23T20:47:07.466Z,28.84
2018-08-23T20:49:33.684Z,28.82
2018-08-23T20:52:00.010Z,28.78
2018-08-23T20:54:26.343Z,28.76
2018-08-23T20:56:52.652Z,28.74
2018-08-23T20:59:18.965Z,28.72
2018-08-23T21:01:45.272Z,28.68
2018-08-23T21:06:37.974Z,28.61
2018-08-23T21:09:04.292Z,28.58
2018-08-23T21:11:30.611Z,28.55
2018-08-23T21:13:56.940Z,28.52
2018-08-23T21:16:23.270Z,28.50
2018-08-23T21:18:49.580Z,28.47
2018-08-23T21:21:15.896Z,28.45
2018-08-23T21:23:42.224Z,28.42
2018-08-23T21:26:08.554Z,28.37
2018-08-23T21:28:34.869Z,28.35
2018-08-23T21:31:01.191Z,28.32
2018-08-23T21:33:27.500Z,28.31
2018-08-23T21:35:53.828Z,28.26
2018-08-23T21:38:20.160Z,28.23
2018-08-23T21:40:46.508Z,28.21
2018-08-23T21:43:12.817Z,28.19
2018-08-23T21:45:39.130Z,28.19
2018-08-23T21:48:05.445Z,28.19
2018-08-23T21:50:31.757Z,28.17
2018-08-23T21:52:58.088Z,28.13
2018-08-23T21:55:24.459Z,28.13
2018-08-23T21:57:50.781Z,28.13
2018-08-23T22:00:24.887Z,28.10
2018-08-23T22:02:51.187Z,28.08
2018-08-23T22:05:17.513Z,28.06
2018-08-23T22:07:43.832Z,28.05
2018-08-23T22:10:10.152Z,28.02
2018-08-23T22:12:36.504Z,27.99
2018-08-23T22:15:03.334Z,27.98
2018-08-23T22:17:29.695Z,27.97
2018-08-23T22:19:56.044Z,27.93
2018-08-23T22:22:22.363Z,27.92
2018-08-23T22:24:48.687Z,27.91
2018-08-23T22:27:15.005Z,27.89
2018-08-23T22:29:41.326Z,27.89
2018-08-23T22:32:07.670Z,27.86
2018-08-23T22:34:33.988Z,27.84
2018-08-23T22:37:00.310Z,27.81
2018-08-23T22:39:26.676Z,27.76
2018-08-23T22:41:52.972Z,27.74
2018-08-23T22:44:19.331Z,27.73
2018-08-23T22:46:45.669Z,27.69
2018-08-23T22:49:12.013Z,27.71
2018-08-23T22:51:38.296Z,27.70
2018-08-23T22:54:04.639Z,27.70
2018-08-23T22:56:30.953Z,27.64
2018-08-23T22:58:57.269Z,27.61
2018-08-23T23:01:23.589Z,27.61
2018-08-23T23:03:49.929Z,27.60
2018-08-23T23:06:16.260Z,27.56
2018-08-23T23:08:42.597Z,27.53
2018-08-23T23:11:08.991Z,27.52
2018-08-23T23:13:35.339Z,27.51
2018-08-23T23:16:01.681Z,27.48
2018-08-23T23:18:28.019Z,27.46
2018-08-23T23:20:54.324Z,27.44
2018-08-23T23:23:20.651Z,27.42
2018-08-23T23:25:46.967Z,27.39
2018-08-23T23:28:13.288Z,27.38
2018-08-23T23:30:39.606Z,27.35
2018-08-23T23:33:05.920Z,27.34
2018-08-23T23:35:32.256Z,27.34
2018-08-23T23:37:58.582Z,27.31
2018-08-23T23:40:24.908Z,27.29
2018-08-23T23:42:51.258Z,27.26
2018-08-23T23:45:17.545Z,27.26
2018-08-23T23:47:43.918Z,27.26
2018-08-23T23:50:10.244Z,27.25
2018-08-23T23:52:36.612Z,27.24
2018-08-23T23:55:02.942Z,27.22
2018-08-23T23:57:29.311Z,27.20
2018-08-23T23:59:55.628Z,27.16
